Time;durP1;ratioP1;P1;durP2;ratioP2;P2;SDS_P1;SDS_P2;PMS_P1;PMS_P2;Temp;Humidity;BMP_temperature;BMP_pressure;BME280_temperature;BME280_humidity;BME280_pressure;Samples;Min_cycle;Max_cycle;Signal;HPM_P1;HPM_P2
2021/08/09 00:00:07;;;;;;;1.45;0.90;;;;;;;16.76;64.52;97385.50;4943651;28;20117;-76
2021/08/09 00:02:34;;;;;;;1.65;0.98;;;;;;;16.71;64.46;97388.16;4959982;28;20042;-76
2021/08/09 00:04:59;;;;;;;3.42;0.88;;;;;;;16.72;64.32;97389.75;4936695;29;20260;-76
2021/08/09 00:07:25;;;;;;;1.27;0.90;;;;;;;17.14;63.35;97386.44;4942326;28;20504;-76
2021/08/09 00:09:50;;;;;;;1.55;0.93;;;;;;;17.09;63.26;97386.47;4989452;28;20401;-76
2021/08/09 00:12:16;;;;;;;1.10;0.80;;;;;;;16.77;64.17;97387.06;4940124;28;20026;-76
2021/08/09 00:14:41;;;;;;;2.55;1.00;;;;;;;16.69;64.44;97396.38;4948738;28;20117;-76
2021/08/09 00:17:07;;;;;;;0.88;0.80;;;;;;;16.66;64.62;97389.81;4933210;28;20034;-76
2021/08/09 00:19:33;;;;;;;1.48;1.10;;;;;;;16.66;64.52;97392.44;4968886;28;20034;-76
2021/08/09 00:21:58;;;;;;;0.90;0.90;;;;;;;16.62;64.63;97391.44;4957351;28;20030;-76
2021/08/09 00:24:24;;;;;;;3.42;1.05;;;;;;;16.54;65.05;97391.25;4974123;28;20057;-77
2021/08/09 00:26:51;;;;;;;3.08;1.00;;;;;;;16.51;65.16;97389.16;4957972;28;20128;-76
2021/08/09 00:29:17;;;;;;;2.03;1.02;;;;;;;16.45;65.15;97385.78;4947686;28;20042;-76
2021/08/09 00:31:44;;;;;;;1.20;1.05;;;;;;;16.47;64.90;97384.47;4954869;28;20101;-76
2021/08/09 00:34:13;;;;;;;1.65;1.15;;;;;;;16.33;65.28;97388.00;4964173;28;20041;-77
2021/08/09 00:36:38;;;;;;;1.45;0.95;;;;;;;16.33;65.58;97385.38;4953674;28;20038;-77
2021/08/09 00:39:06;;;;;;;1.77;0.85;;;;;;;16.35;65.64;97384.06;4938112;28;20045;-77
2021/08/09 00:41:31;;;;;;;1.25;1.15;;;;;;;16.37;65.40;97383.78;4972019;28;20062;-77
2021/08/09 00:43:57;;;;;;;1.65;0.90;;;;;;;16.39;65.20;97379.03;4969335;28;20074;-77
2021/08/09 00:46:23;;;;;;;1.25;0.75;;;;;;;16.37;65.28;97378.53;4974159;28;20425;-76
2021/08/09 00:48:48;;;;;;;2.90;1.55;;;;;;;16.36;65.49;97372.47;4950043;28;20065;-76
2021/08/09 00:51:16;;;;;;;1.52;0.85;;;;;;;16.38;65.54;97377.44;4957831;28;20113;-76
2021/08/09 00:53:41;;;;;;;2.55;1.38;;;;;;;16.40;65.29;97380.56;4962683;28;20475;-76
2021/08/09 00:56:07;;;;;;;2.70;1.00;;;;;;;16.38;64.91;97377.44;4952564;28;20092;-77
2021/08/09 00:58:33;;;;;;;1.65;0.77;;;;;;;16.27;65.41;97377.53;4942340;28;20039;-76
2021/08/09 01:00:59;;;;;;;2.53;0.90;;;;;;;16.33;65.11;97383.56;4952455;28;20412;-76
2021/08/09 01:03:24;;;;;;;1.67;1.30;;;;;;;16.36;65.16;97384.81;4961351;23;20449;-77
2021/08/09 01:05:50;;;;;;;2.22;1.30;;;;;;;16.29;65.25;97383.28;4986918;28;20030;-77
2021/08/09 01:08:41;;;;;;;2.60;0.95;;;;;;;16.22;65.31;97379.44;4993051;28;20038;-77
2021/08/09 01:11:28;;;;;;;1.33;0.90;;;;;;;16.00;65.78;97379.84;5010135;28;20084;-77
2021/08/09 01:14:01;;;;;;;1.20;0.90;;;;;;;16.14;65.54;97375.53;4992626;28;20029;-77
2021/08/09 01:16:32;;;;;;;1.35;0.60;;;;;;;16.26;65.24;97385.69;4960692;28;20565;-77
2021/08/09 01:19:01;;;;;;;1.67;1.10;;;;;;;16.28;65.20;97392.25;4956923;28;20492;-77
2021/08/09 01:21:31;;;;;;;0.98;0.80;;;;;;;16.27;65.13;97393.28;4957244;28;20033;-77
2021/08/09 01:24:22;;;;;;;1.52;0.73;;;;;;;16.00;65.72;97385.09;4985138;28;20129;-77
2021/08/09 01:27:15;;;;;;;1.25;0.85;;;;;;;16.07;65.45;97389.00;4982870;28;20125;-77
2021/08/09 01:29:45;;;;;;;2.50;0.90;;;;;;;16.25;65.08;97394.66;4986113;28;20033;-77
2021/08/09 01:32:11;;;;;;;2.20;1.10;;;;;;;16.28;64.89;97391.47;4975983;28;20026;-77
2021/08/09 01:34:37;;;;;;;0.80;0.80;;;;;;;16.21;65.24;97383.91;4975225;28;20049;-77
2021/08/09 01:37:03;;;;;;;1.58;0.73;;;;;;;16.21;65.05;97390.97;4985129;28;20041;-77
2021/08/09 01:39:29;;;;;;;2.08;0.75;;;;;;;16.23;65.13;97381.78;4975439;28;20040;-77
2021/08/09 01:41:55;;;;;;;1.25;0.88;;;;;;;16.21;65.44;97389.16;4976155;28;20022;-77
2021/08/09 01:44:21;;;;;;;2.33;0.82;;;;;;;16.13;65.39;97383.72;4975200;28;20029;-77
2021/08/09 01:46:47;;;;;;;1.38;0.90;;;;;;;16.13;65.54;97384.50;4991912;28;20038;-77
2021/08/09 01:49:13;;;;;;;2.45;0.80;;;;;;;16.13;65.71;97387.13;4958941;28;20128;-77
2021/08/09 01:51:38;;;;;;;1.65;0.95;;;;;;;16.15;65.64;97377.13;4975168;28;20033;-77
2021/08/09 01:54:05;;;;;;;1.55;0.90;;;;;;;16.08;65.37;97376.66;4975552;28;20400;-77
2021/08/09 01:56:31;;;;;;;2.00;0.80;;;;;;;16.07;65.11;97373.25;4991847;28;20535;-77
2021/08/09 01:58:57;;;;;;;1.83;1.30;;;;;;;16.08;65.25;97374.03;4991864;28;20025;-77
2021/08/09 02:01:22;;;;;;;1.38;0.77;;;;;;;16.01;65.14;97366.47;4975907;28;20029;-77
2021/08/09 02:03:48;;;;;;;1.90;1.00;;;;;;;16.00;65.33;97379.84;4990448;28;20384;-77
2021/08/09 02:06:14;;;;;;;1.27;1.00;;;;;;;15.96;65.33;97374.38;4991872;28;20164;-77
2021/08/09 02:08:40;;;;;;;0.70;0.70;;;;;;;15.97;65.25;97369.91;4975511;28;20025;-77
2021/08/09 02:11:13;;;;;;;1.42;0.80;;;;;;;15.84;65.36;97376.56;4991648;28;20032;-77
2021/08/09 02:13:49;;;;;;;0.70;0.60;;;;;;;15.74;65.28;97380.00;4975341;28;20037;-77
2021/08/09 02:16:19;;;;;;;1.20;1.00;;;;;;;15.98;65.27;97381.97;4975716;28;20065;-77
2021/08/09 02:18:51;;;;;;;1.10;0.73;;;;;;;15.96;65.20;97392.75;4991405;28;20400;-77
2021/08/09 02:21:21;;;;;;;1.70;0.80;;;;;;;15.84;65.21;97387.84;4974462;28;20381;-77
2021/08/09 02:23:59;;;;;;;2.15;0.90;;;;;;;15.70;65.40;97385.00;4975523;28;20061;-77
2021/08/09 02:26:33;;;;;;;1.42;0.90;;;;;;;15.73;65.52;97381.84;4969529;28;20516;-77
2021/08/09 02:29:03;;;;;;;1.30;0.77;;;;;;;15.77;65.55;97381.34;4989812;28;20416;-77
2021/08/09 02:31:30;;;;;;;2.63;1.20;;;;;;;15.85;65.05;97372.88;4974937;28;20056;-77
2021/08/09 02:33:56;;;;;;;1.80;0.70;;;;;;;15.82;65.39;97374.22;4991295;28;20552;-77
2021/08/09 02:36:23;;;;;;;1.63;1.20;;;;;;;15.84;65.11;97377.34;4978539;28;20121;-77
2021/08/09 02:38:51;;;;;;;1.90;1.02;;;;;;;15.71;65.35;97365.59;4979733;28;20562;-77
2021/08/09 02:41:17;;;;;;;1.33;1.02;;;;;;;15.79;65.30;97372.13;4995883;28;20061;-77
2021/08/09 02:43:43;;;;;;;1.42;1.00;;;;;;;15.80;65.54;97376.31;5011083;28;20077;-77
2021/08/09 02:46:08;;;;;;;1.30;0.93;;;;;;;15.82;65.25;97378.69;4975991;28;20026;-77
2021/08/09 02:48:34;;;;;;;1.38;0.73;;;;;;;15.91;65.09;97388.31;4976089;28;20041;-77
2021/08/09 02:51:00;;;;;;;1.77;0.80;;;;;;;15.96;64.95;97381.47;4975296;28;20133;-77
2021/08/09 02:53:26;;;;;;;1.90;0.90;;;;;;;15.96;64.95;97381.47;4991087;28;20428;-77
2021/08/09 02:55:54;;;;;;;0.98;0.80;;;;;;;15.98;64.67;97381.97;4994398;28;20026;-77
2021/08/09 02:58:20;;;;;;;1.10;1.00;;;;;;;16.09;64.63;97380.81;4995208;28;20033;-77
2021/08/09 03:00:46;;;;;;;1.02;0.77;;;;;;;16.12;64.50;97377.66;4994861;28;20034;-77
2021/08/09 03:03:11;;;;;;;0.68;0.60;;;;;;;16.16;64.70;97385.78;4975565;28;20472;-77
2021/08/09 03:05:39;;;;;;;0.93;0.85;;;;;;;16.12;64.59;97388.16;4977586;28;20083;-77
2021/08/09 03:08:05;;;;;;;1.35;1.00;;;;;;;16.14;64.18;97386.03;4990685;28;20556;-77
2021/08/09 03:10:30;;;;;;;1.25;0.98;;;;;;;16.10;64.56;97379.78;5012308;28;20121;-77
2021/08/09 03:12:57;;;;;;;1.40;0.90;;;;;;;16.13;64.53;97388.97;4995023;28;20068;-77
2021/08/09 03:15:23;;;;;;;1.10;0.88;;;;;;;16.15;64.46;97386.84;4994770;28;20038;-77
2021/08/09 03:17:48;;;;;;;1.02;0.75;;;;;;;16.21;64.33;97393.59;5011006;28;20032;-77
2021/08/09 03:20:14;;;;;;;2.65;0.90;;;;;;;16.22;64.30;97395.19;4994682;28;20380;-77
2021/08/09 03:22:39;;;;;;;1.20;0.70;;;;;;;16.27;64.45;97395.94;4994748;28;20370;-77
2021/08/09 03:25:05;;;;;;;1.63;0.80;;;;;;;16.26;64.29;97396.19;4994014;28;20572;-77
2021/08/09 03:27:31;;;;;;;1.13;0.90;;;;;;;16.32;64.30;97400.38;4961888;28;20026;-77
2021/08/09 03:29:56;;;;;;;1.17;1.05;;;;;;;16.39;63.97;97403.44;4994911;28;20049;-77
2021/08/09 03:32:23;;;;;;;3.30;1.15;;;;;;;16.40;64.01;97401.59;4994602;28;20068;-77
2021/08/09 03:34:48;;;;;;;1.83;0.88;;;;;;;16.41;64.06;97400.53;4994250;28;20025;-77
2021/08/09 03:37:14;;;;;;;1.20;0.85;;;;;;;16.35;63.90;97399.00;4990183;28;20046;-77
2021/08/09 03:39:39;;;;;;;2.03;0.82;;;;;;;16.33;64.27;97388.81;4978282;28;20056;-77
2021/08/09 03:42:05;;;;;;;0.73;0.73;;;;;;;16.40;64.01;97385.81;4993648;28;20053;-77
2021/08/09 03:44:30;;;;;;;1.40;0.80;;;;;;;16.39;64.73;97381.66;4993888;28;20503;-77
2021/08/09 03:47:01;;;;;;;1.10;0.82;;;;;;;16.26;64.26;97373.34;4958617;28;20500;-77
2021/08/09 03:49:27;;;;;;;1.02;0.80;;;;;;;16.32;64.36;97373.31;4961873;28;20441;-77
2021/08/09 03:51:53;;;;;;;1.52;1.00;;;;;;;16.28;64.40;97365.97;4993859;28;20030;-77
2021/08/09 03:54:19;;;;;;;1.08;0.80;;;;;;;16.36;64.43;97377.72;4977287;28;20412;-77
2021/08/09 03:56:44;;;;;;;1.05;0.80;;;;;;;16.38;64.14;97380.06;4993894;28;20021;-77
2021/08/09 03:59:10;;;;;;;1.48;1.13;;;;;;;16.34;64.43;97376.44;4977804;28;20026;-77
2021/08/09 04:01:40;;;;;;;1.90;1.00;;;;;;;16.35;64.48;97381.41;4993625;28;20088;-77
2021/08/09 04:04:06;;;;;;;1.90;0.85;;;;;;;16.33;64.79;97377.50;4993805;28;20033;-77
2021/08/09 04:06:32;;;;;;;2.65;0.90;;;;;;;16.43;64.31;97386.09;4994006;28;20472;-77
2021/08/09 04:08:57;;;;;;;0.80;0.80;;;;;;;16.36;64.66;97376.94;4958339;28;20036;-77
2021/08/09 04:11:23;;;;;;;1.60;1.00;;;;;;;16.32;64.85;97375.94;4973376;28;20034;-77
2021/08/09 04:13:48;;;;;;;1.80;0.90;;;;;;;16.37;64.64;97379.28;4991676;28;20112;-77
2021/08/09 04:16:13;;;;;;;2.47;1.10;;;;;;;16.40;64.55;97393.72;4990558;28;20062;-77
2021/08/09 04:18:39;;;;;;;1.50;0.90;;;;;;;16.43;64.42;97398.41;4990771;28;20056;-77
2021/08/09 04:21:07;;;;;;;1.80;0.73;;;;;;;16.41;64.42;97403.19;4974261;28;20365;-77
2021/08/09 04:23:33;;;;;;;1.40;0.82;;;;;;;16.28;64.81;97400.13;4989262;28;20034;-77
2021/08/09 04:25:58;;;;;;;1.75;0.90;;;;;;;16.27;64.55;97393.28;4993456;28;20080;-77
2021/08/09 04:28:24;;;;;;;1.52;0.82;;;;;;;16.22;64.62;97401.22;5010077;28;20120;-77
2021/08/09 04:30:49;;;;;;;2.80;0.85;;;;;;;16.20;64.48;97397.31;4975312;28;20546;-77
2021/08/09 04:33:14;;;;;;;1.70;1.00;;;;;;;16.16;64.48;97399.72;4977141;28;20068;-77
2021/08/09 04:35:40;;;;;;;2.45;1.33;;;;;;;16.19;64.45;97399.13;5009098;28;20033;-77
2021/08/09 04:38:05;;;;;;;1.98;1.15;;;;;;;16.15;65.18;97386.84;4975881;28;20367;-77
2021/08/09 04:40:31;;;;;;;3.42;0.85;;;;;;;16.18;64.90;97400.22;4993189;28;20026;-77
2021/08/09 04:42:57;;;;;;;0.88;0.85;;;;;;;16.14;64.85;97398.41;4993179;28;20057;-77
2021/08/09 04:45:24;;;;;;;1.75;0.73;;;;;;;16.13;64.83;97389.75;4974593;28;20034;-78
2021/08/09 04:47:50;;;;;;;2.35;0.98;;;;;;;16.16;64.78;97396.28;5009610;28;20242;-77
2021/08/09 04:50:16;;;;;;;1.50;1.20;;;;;;;16.11;65.09;97394.50;4973971;28;20384;-77
2021/08/09 04:52:42;;;;;;;2.78;0.90;;;;;;;16.04;65.16;97388.75;4992830;28;20103;-77
2021/08/09 04:55:09;;;;;;;1.48;0.90;;;;;;;16.15;64.75;97392.88;5002746;28;20491;-77
2021/08/09 04:57:35;;;;;;;3.33;1.05;;;;;;;16.17;64.95;97397.84;4992980;28;20488;-77
2021/08/09 05:00:00;;;;;;;2.60;1.33;;;;;;;16.21;65.00;97402.28;4992097;28;20025;-77
2021/08/09 05:02:25;;;;;;;2.22;0.80;;;;;;;16.26;65.27;97409.34;4992316;28;20068;-77
2021/08/09 05:04:51;;;;;;;3.25;0.90;;;;;;;16.32;64.82;97412.72;4991341;28;20037;-77
2021/08/09 05:07:16;;;;;;;1.05;0.70;;;;;;;16.35;65.22;97417.41;4988660;28;20568;-77
2021/08/09 05:09:41;;;;;;;2.13;0.80;;;;;;;16.40;64.95;97414.72;4970386;28;20027;-77
2021/08/09 05:12:07;;;;;;;2.35;0.80;;;;;;;16.41;64.82;97416.31;4970855;28;20519;-77
2021/08/09 05:14:34;;;;;;;1.10;0.80;;;;;;;16.51;64.36;97410.97;5007854;28;20038;-76
2021/08/09 05:16:59;;;;;;;1.65;0.98;;;;;;;16.57;64.54;97419.59;4972530;28;20049;-77
2021/08/09 05:19:25;;;;;;;1.08;0.90;;;;;;;16.56;64.61;97405.66;4989115;28;20468;-77
2021/08/09 05:21:50;;;;;;;2.10;0.88;;;;;;;16.57;64.49;97404.63;5009579;28;20402;-77
2021/08/09 05:24:15;;;;;;;1.65;1.13;;;;;;;16.55;64.39;97401.47;4974801;28;20091;-77
2021/08/09 05:26:41;;;;;;;1.98;1.20;;;;;;;16.66;64.27;97408.19;4975521;28;20026;-77
2021/08/09 05:29:06;;;;;;;2.25;0.90;;;;;;;16.66;64.17;97402.94;5007708;28;20500;-77
2021/08/09 05:31:32;;;;;;;2.45;1.00;;;;;;;16.85;63.72;97402.28;4990884;28;20045;-77
2021/08/09 05:33:58;;;;;;;1.63;0.80;;;;;;;16.93;63.68;97408.75;4991578;28;20113;-77
2021/08/09 05:36:24;;;;;;;1.90;0.88;;;;;;;17.08;62.73;97405.19;4976625;28;20047;-77
2021/08/09 05:38:50;;;;;;;1.60;0.90;;;;;;;17.22;62.44;97398.97;4990649;28;20038;-78
2021/08/09 05:41:15;;;;;;;1.25;0.95;;;;;;;17.39;62.04;97395.06;4992524;28;20056;-77
2021/08/09 05:43:41;;;;;;;0.93;0.75;;;;;;;17.45;61.85;97391.31;4976138;28;20061;-77
2021/08/09 05:46:06;;;;;;;1.17;0.98;;;;;;;17.49;62.21;97387.03;4992059;28;20036;-77
2021/08/09 05:48:35;;;;;;;2.17;1.13;;;;;;;17.51;61.32;97399.91;4992716;28;20064;-77
2021/08/09 05:51:00;;;;;;;1.02;0.85;;;;;;;17.58;61.24;97395.88;4991988;28;20036;-77
2021/08/09 05:53:27;;;;;;;2.95;0.85;;;;;;;17.71;61.21;97394.38;4992180;28;20042;-77
2021/08/09 05:55:54;;;;;;;1.73;0.82;;;;;;;17.84;61.53;97392.09;4992632;28;20539;-77
2021/08/09 05:58:19;;;;;;;1.67;1.10;;;;;;;17.94;60.96;97394.59;4992381;28;20034;-77
2021/08/09 06:00:45;;;;;;;1.30;0.90;;;;;;;17.96;61.13;97400.38;4976522;28;20030;-77
2021/08/09 06:03:18;;;;;;;2.17;0.88;;;;;;;17.91;60.97;97401.25;4991565;28;20456;-77
2021/08/09 06:05:45;;;;;;;1.92;1.20;;;;;;;18.04;60.50;97417.38;4991945;28;20492;-77
2021/08/09 06:08:11;;;;;;;1.40;0.90;;;;;;;18.00;61.37;97411.91;4972600;28;20061;-77
2021/08/09 06:10:36;;;;;;;1.60;0.88;;;;;;;18.13;60.29;97420.94;5008469;28;20042;-77
2021/08/09 06:13:02;;;;;;;3.40;0.82;;;;;;;18.11;60.54;97418.59;5007704;28;20030;-79
2021/08/09 06:15:27;;;;;;;2.17;1.02;;;;;;;18.12;61.08;97414.88;4988402;28;20190;-77
2021/08/09 06:17:52;;;;;;;2.22;1.15;;;;;;;18.21;61.92;97428.19;4990785;28;20428;-77
2021/08/09 06:20:18;;;;;;;1.77;0.90;;;;;;;18.32;61.20;97418.28;4991342;28;20062;-77
2021/08/09 06:22:44;;;;;;;1.15;0.95;;;;;;;18.46;60.60;97419.09;5007805;28;20026;-77
2021/08/09 06:25:09;;;;;;;2.70;1.10;;;;;;;18.61;60.11;97420.69;4975201;28;20030;-77
2021/08/09 06:27:37;;;;;;;2.35;1.17;;;;;;;18.81;59.26;97419.53;4991126;28;20069;-77
2021/08/09 06:30:03;;;;;;;1.10;0.80;;;;;;;19.01;58.96;97426.34;4990903;28;20068;-77
2021/08/09 06:32:29;;;;;;;2.30;1.05;;;;;;;19.12;59.63;97420.84;4990502;28;20457;-77
2021/08/09 06:34:54;;;;;;;1.15;0.80;;;;;;;19.34;59.06;97430.72;4992117;28;20054;-77
2021/08/09 06:37:20;;;;;;;1.70;0.95;;;;;;;19.56;57.76;97420.22;4985255;28;20037;-77
2021/08/09 06:39:45;;;;;;;1.00;0.90;;;;;;;19.81;57.54;97428.72;4975485;28;20451;-77
2021/08/09 06:42:10;;;;;;;1.50;0.90;;;;;;;19.89;57.25;97417.44;5007788;28;20376;-77
2021/08/09 06:44:36;;;;;;;2.97;1.15;;;;;;;20.27;56.59;97429.53;4974566;28;20053;-77
2021/08/09 06:47:02;;;;;;;2.70;0.93;;;;;;;20.14;56.71;97424.00;4975733;28;20117;-77
2021/08/09 06:49:27;;;;;;;0.88;0.82;;;;;;;20.37;55.41;97422.16;4988581;28;20045;-77
2021/08/09 06:51:53;;;;;;;1.27;0.98;;;;;;;20.59;55.60;97431.13;4985756;28;20028;-77
2021/08/09 06:54:20;;;;;;;1.85;0.90;;;;;;;20.80;54.32;97433.28;4990506;28;20419;-77
2021/08/09 06:56:47;;;;;;;2.08;0.82;;;;;;;20.88;54.95;97440.47;4991572;28;20496;-78
2021/08/09 06:59:12;;;;;;;1.05;0.90;;;;;;;20.86;54.88;97437.38;4992241;28;20484;-77
2021/08/09 07:01:38;;;;;;;1.10;1.00;;;;;;;20.99;54.08;97431.19;4971737;28;20054;-77
2021/08/09 07:04:05;;;;;;;2.47;1.10;;;;;;;21.04;54.63;97428.41;5007112;28;20042;-78
2021/08/09 07:06:30;;;;;;;0.98;0.88;;;;;;;21.36;54.00;97429.13;4991701;28;20118;-78
2021/08/09 07:08:56;;;;;;;3.58;1.77;;;;;;;21.57;53.74;97417.97;4963337;28;20733;-77
2021/08/09 07:11:22;;;;;;;0.85;0.80;;;;;;;21.82;53.50;97417.19;4956190;28;20031;-77
2021/08/09 07:13:48;;;;;;;2.45;0.80;;;;;;;21.96;52.41;97408.31;5006228;28;20044;-77
2021/08/09 07:16:14;;;;;;;3.88;1.10;;;;;;;22.28;51.14;97411.56;5007568;28;20444;-77
2021/08/09 07:18:42;;;;;;;2.72;1.10;;;;;;;22.42;51.08;97417.50;5008079;28;20026;-79
2021/08/09 07:21:10;;;;;;;1.55;0.80;;;;;;;22.54;50.85;97409.66;4976461;28;20040;-79
2021/08/09 07:23:38;;;;;;;1.00;0.70;;;;;;;22.61;49.44;97422.44;4974495;28;20022;-78
2021/08/09 07:26:06;;;;;;;0.73;0.73;;;;;;;22.55;49.17;97429.81;4977781;28;20511;-78
2021/08/09 07:28:32;;;;;;;3.35;0.70;;;;;;;22.85;48.83;97421.13;5011608;28;20034;-77
2021/08/09 07:30:59;;;;;;;2.17;0.80;;;;;;;22.76;51.13;97418.50;4994261;28;20112;-78
2021/08/09 07:33:26;;;;;;;3.42;1.10;;;;;;;22.90;49.56;97415.63;4993590;28;20117;-77
2021/08/09 07:35:53;;;;;;;1.02;0.85;;;;;;;23.21;48.47;97428.63;4990662;28;20618;-78
2021/08/09 07:38:19;;;;;;;2.08;1.20;;;;;;;23.30;48.24;97418.72;4975911;28;20080;-78
2021/08/09 07:40:46;;;;;;;1.80;0.80;;;;;;;23.42;46.85;97422.59;4993743;28;20460;-78
2021/08/09 07:43:12;;;;;;;1.00;0.90;;;;;;;23.46;47.49;97426.13;4976841;28;20022;-77
2021/08/09 07:45:39;;;;;;;2.30;0.80;;;;;;;23.51;47.59;97423.28;4964560;28;20052;-77
2021/08/09 07:48:06;;;;;;;1.02;0.93;;;;;;;23.75;47.06;97428.78;4978007;28;20108;-78
2021/08/09 07:50:33;;;;;;;1.60;1.08;;;;;;;23.79;48.12;97422.81;4998527;28;20329;-78
2021/08/09 07:52:59;;;;;;;1.73;1.02;;;;;;;23.97;46.85;97415.50;4988168;28;20026;-78
2021/08/09 07:55:25;;;;;;;1.38;1.00;;;;;;;24.08;46.70;97414.00;4988814;28;20034;-78
2021/08/09 07:57:51;;;;;;;1.40;1.30;;;;;;;23.89;47.98;97409.91;4954697;28;20030;-77
2021/08/09 08:00:17;;;;;;;1.42;1.10;;;;;;;24.08;48.18;97400.69;4978955;28;20033;-77
2021/08/09 08:02:43;;;;;;;1.90;1.00;;;;;;;24.31;46.58;97409.84;4979943;28;20034;-77
2021/08/09 08:05:09;;;;;;;2.42;1.25;;;;;;;24.68;44.79;97425.94;4994885;28;20069;-78
2021/08/09 08:07:38;;;;;;;2.30;1.05;;;;;;;24.86;45.66;97421.19;4993351;28;20061;-77
2021/08/09 08:10:04;;;;;;;1.52;0.98;;;;;;;24.90;45.04;97423.97;4973426;28;20121;-78
2021/08/09 08:12:30;;;;;;;1.20;1.10;;;;;;;25.14;44.32;97420.53;5013892;28;20424;-77
2021/08/09 08:14:56;;;;;;;1.13;0.90;;;;;;;25.32;45.01;97415.75;4992636;28;20044;-78
2021/08/09 08:17:23;;;;;;;1.60;1.10;;;;;;;25.57;43.83;97427.16;4989626;28;20034;-77
2021/08/09 08:19:49;;;;;;;2.25;1.50;;;;;;;25.36;44.53;97421.19;4993409;28;20048;-77
2021/08/09 08:22:15;;;;;;;2.47;0.98;;;;;;;25.36;45.00;97419.31;4975330;28;20022;-77
2021/08/09 08:24:40;;;;;;;2.25;2.10;;;;;;;25.44;43.80;97428.28;4956725;28;20030;-78
2021/08/09 08:27:06;;;;;;;2.95;2.00;;;;;;;25.79;43.10;97435.78;4988909;28;20049;-77
2021/08/09 08:29:31;;;;;;;1.77;1.50;;;;;;;26.01;42.49;97434.50;4987673;28;20030;-77
2021/08/09 08:31:56;;;;;;;1.58;1.25;;;;;;;25.96;42.62;97438.22;4988260;28;20049;-77
2021/08/09 08:34:22;;;;;;;3.22;1.60;;;;;;;26.10;43.63;97432.50;4969459;28;20025;-78
2021/08/09 08:36:47;;;;;;;0.82;0.82;;;;;;;26.24;40.91;97436.66;4974171;28;20092;-78
2021/08/09 08:39:13;;;;;;;1.08;0.93;;;;;;;26.23;41.18;97438.53;5008382;28;20022;-78
2021/08/09 08:41:43;;;;;;;2.22;1.30;;;;;;;25.98;41.73;97440.53;4980013;28;20026;-78
2021/08/09 08:44:08;;;;;;;3.83;1.15;;;;;;;26.15;41.70;97440.25;4988791;28;20479;-77
2021/08/09 08:46:37;;;;;;;3.28;0.93;;;;;;;25.58;42.44;97449.28;4954660;28;20088;-77
2021/08/09 08:49:08;;;;;;;2.53;1.00;;;;;;;25.54;43.82;97446.50;4972035;28;20532;-77
2021/08/09 08:51:33;;;;;;;2.92;1.23;;;;;;;25.50;44.35;97448.28;4973087;28;20099;-77
2021/08/09 08:53:59;;;;;;;0.93;0.93;;;;;;;25.52;42.84;97446.06;4988227;28;20026;-80
2021/08/09 08:56:24;;;;;;;4.20;1.00;;;;;;;24.67;44.98;97444.91;4988684;28;20037;-77
2021/08/09 08:58:50;;;;;;;2.38;1.00;;;;;;;24.81;45.66;97440.06;4987231;28;20042;-77
2021/08/09 09:01:35;;;;;;;2.20;1.10;;;;;;;24.85;45.88;97445.50;4987218;28;20057;-77
2021/08/09 09:04:17;;;;;;;;;;;;;;;25.12;45.49;97436.06;4924137;28;1327308;-77
2021/08/09 09:06:43;;;;;;;3.47;1.27;;;;;;;25.61;44.21;97438.69;4961123;28;20673;-77
2021/08/09 09:09:19;;;;;;;2.70;1.50;;;;;;;24.94;44.48;97434.75;4973290;28;20077;-79
2021/08/09 09:11:44;;;;;;;1.23;1.00;;;;;;;25.02;45.42;97436.53;4957660;28;20038;-80
2021/08/09 09:14:10;;;;;;;1.65;1.10;;;;;;;24.74;46.83;97437.13;5001692;28;20033;-79
2021/08/09 09:16:46;;;;;;;1.33;1.10;;;;;;;24.54;44.45;97430.78;4990804;28;20334;-80
2021/08/09 09:19:30;;;;;;;1.35;1.20;;;;;;;24.30;45.96;97426.16;4973806;28;20096;-80
2021/08/09 09:21:58;;;;;;;2.70;1.30;;;;;;;24.02;47.92;97434.69;5007627;28;20033;-77
2021/08/09 09:24:25;;;;;;;2.72;1.20;;;;;;;24.17;48.68;97443.94;4987734;28;20125;-78
2021/08/09 09:26:56;;;;;;;2.30;1.23;;;;;;;23.63;49.08;97444.66;4958568;28;20620;-80
2021/08/09 09:29:23;;;;;;;2.60;1.45;;;;;;;24.19;49.89;97435.66;4974258;28;20068;-80
2021/08/09 09:31:49;;;;;;;3.47;1.50;;;;;;;24.59;47.82;97438.56;4987095;28;20034;-80
2021/08/09 09:34:20;;;;;;;1.73;1.10;;;;;;;24.67;45.04;97440.34;4986028;28;20022;-80
2021/08/09 09:36:57;;;;;;;2.65;1.27;;;;;;;24.27;46.51;97442.78;5005418;28;20057;-80
2021/08/09 09:39:34;;;;;;;1.63;1.00;;;;;;;24.14;47.44;97441.94;4976079;28;20071;-80
2021/08/09 09:42:10;;;;;;;1.55;1.42;;;;;;;24.06;47.62;97442.78;4983139;28;20499;-77
2021/08/09 09:44:41;;;;;;;2.28;1.13;;;;;;;24.56;46.33;97451.75;4989222;28;20038;-77
2021/08/09 09:47:20;;;;;;;1.45;1.08;;;;;;;24.86;45.56;97445.16;4980725;28;20079;-80
2021/08/09 09:49:50;;;;;;;3.00;1.40;;;;;;;25.52;45.13;97446.06;4992630;28;20034;-79
2021/08/09 09:52:45;;;;;;;1.67;1.20;;;;;;;25.89;42.48;97438.00;4992702;28;20036;-80
2021/08/09 09:55:12;;;;;;;1.57;1.00;;;;;;;26.13;41.36;97441.69;4977588;28;20062;-77
2021/08/09 09:57:39;;;;;;;2.65;1.23;;;;;;;26.09;41.30;97448.84;4974105;28;20295;-78
2021/08/09 10:00:12;;;;;;;1.95;1.05;;;;;;;25.69;42.18;97457.59;5009027;28;20034;-79
2021/08/09 10:02:42;;;;;;;2.55;1.48;;;;;;;25.29;43.59;97452.97;4989553;28;20038;-80
2021/08/09 10:05:10;;;;;;;1.92;1.10;;;;;;;25.08;44.33;97453.81;4973408;28;20539;-80
2021/08/09 10:07:39;;;;;;;1.58;1.17;;;;;;;25.22;43.40;97459.63;4990795;28;20030;-80
2021/08/09 10:10:08;;;;;;;1.73;0.93;;;;;;;25.17;45.02;97462.50;4974108;28;20034;-80
2021/08/09 10:12:35;;;;;;;1.50;1.00;;;;;;;25.28;43.98;97464.75;4988766;28;20039;-80
2021/08/09 10:15:01;;;;;;;1.67;1.10;;;;;;;25.38;43.18;97465.06;4973025;28;20076;-77
2021/08/09 10:17:27;;;;;;;2.90;1.10;;;;;;;25.35;45.38;97462.31;4972601;28;20419;-77
2021/08/09 10:19:55;;;;;;;0.98;0.88;;;;;;;25.40;41.77;97464.75;4956400;28;20375;-78
2021/08/09 10:22:22;;;;;;;1.35;0.80;;;;;;;25.32;43.20;97470.97;4995477;28;20750;-80
2021/08/09 10:24:51;;;;;;;1.02;0.93;;;;;;;25.35;43.59;97467.63;4980173;28;20037;-77
2021/08/09 10:27:16;;;;;;;1.60;0.90;;;;;;;25.47;44.25;97470.28;4998092;28;20116;-77
2021/08/09 10:30:00;;;;;;;2.25;0.93;;;;;;;25.07;43.81;97468.28;4986096;28;20130;-77
2021/08/09 10:32:26;;;;;;;1.13;1.05;;;;;;;25.28;45.00;97473.53;4983088;28;20038;-77
2021/08/09 10:34:52;;;;;;;2.10;1.02;;;;;;;24.90;44.18;97457.81;4986391;28;20503;-77
2021/08/09 10:37:23;;;;;;;1.15;0.90;;;;;;;25.18;40.67;97464.03;5006171;28;20091;-77
2021/08/09 10:39:51;;;;;;;1.98;1.05;;;;;;;25.20;41.67;97464.47;4992993;28;20590;-77
2021/08/09 10:42:30;;;;;;;2.47;1.10;;;;;;;25.23;44.30;97461.16;4974278;28;20447;-77
2021/08/09 10:44:57;;;;;;;1.67;0.98;;;;;;;25.78;40.67;97458.25;4986128;28;20038;-78
2021/08/09 10:47:45;;;;;;;2.60;0.93;;;;;;;25.24;40.52;97461.94;4985442;28;20374;-77
2021/08/09 10:50:25;;;;;;;2.15;0.95;;;;;;;25.57;41.45;97463.72;5007683;28;20380;-77
2021/08/09 10:52:52;;;;;;;1.67;1.00;;;;;;;24.93;40.99;97468.56;4973855;28;20564;-79
2021/08/09 10:55:41;;;;;;;1.45;0.88;;;;;;;24.92;44.16;97477.69;4969225;28;20042;-77
2021/08/09 10:58:06;;;;;;;2.63;1.42;;;;;;;25.32;43.21;97476.28;4981531;28;20045;-78
2021/08/09 11:00:38;;;;;;;2.50;1.23;;;;;;;25.34;42.71;97476.72;5006267;28;20392;-77
2021/08/09 11:03:08;;;;;;;2.60;1.77;;;;;;;25.54;40.99;97475.84;5002742;28;20559;-77
2021/08/09 11:05:34;;;;;;;2.75;1.15;;;;;;;25.49;43.69;97476.06;5004439;28;20080;-77
2021/08/09 11:08:20;;;;;;;3.22;0.82;;;;;;;25.06;42.95;97466.72;4995365;28;20058;-77
2021/08/09 11:10:51;;;;;;;1.52;1.10;;;;;;;25.02;41.77;97473.81;5005690;28;20046;-76
2021/08/09 11:13:17;;;;;;;3.25;1.23;;;;;;;25.07;42.27;97468.28;4993457;28;20041;-77
2021/08/09 11:15:54;;;;;;;2.97;1.45;;;;;;;24.81;43.08;97473.88;5008312;28;20049;-77
2021/08/09 11:18:20;;;;;;;2.67;1.33;;;;;;;25.11;41.71;97458.50;4984151;28;20033;-77
2021/08/09 11:20:45;;;;;;;3.28;1.40;;;;;;;25.31;43.70;97477.38;4993206;28;20041;-77
2021/08/09 11:23:13;;;;;;;2.92;1.40;;;;;;;25.45;43.55;97471.72;4965734;28;20021;-80
2021/08/09 11:25:47;;;;;;;3.85;2.00;;;;;;;25.56;40.46;97473.59;5010830;28;20040;-77
2021/08/09 11:28:24;;;;;;;2.28;1.27;;;;;;;25.59;40.07;97470.25;4975930;28;20034;-77
2021/08/09 11:30:53;;;;;;;3.38;1.83;;;;;;;25.77;40.72;97475.34;4986099;28;20042;-77
2021/08/09 11:33:21;;;;;;;1.13;1.00;;;;;;;25.44;41.32;97470.19;4973883;28;20042;-77
2021/08/09 11:35:47;;;;;;;2.70;1.65;;;;;;;25.29;39.49;97459.06;4992747;28;20084;-80